Startpagina
METAR-TAF:

METAR-TAF

Vliegvelden :

Maiduguri, Nigeria

breedte: 11-51N, lengte: 013-05E, hoogte: 354 m

Actueel weer

Dit bericht is 12 uur en het 55 minuten geleden gemaakt, om 14:00 UTC
Weinig wind
Temperatuur 32°C
Vochtigheid 11%
Druk 1012 hPa
Zicht 10 km of meer
geen wolken onder 1500 m en geen cumulonimbus

METAR: DNMA 281400Z 00000KT CAVOK 32/M02 Q1012

Tijdstip: 03:55 (02:55 UTC)


TAF: ontbreekt

Waarnemingen en weersverwachtingen van meer dan 4000 vliegvelden (METAR en TAF).

De beschikbare stations zijn de gele en rode punten op de kaart.

Ga met uw muis naar het station om de naam te zien.

Klik dan om waarnemingen en weersverwachtingen te zien.

kaart wijzigen: klik op de groene knoppen met een zwart kruis om in te zoomen, op de groene knop met een streepje om uit te zoomen of op de groene pijlen voor aangrenzende kaarten.


METAR-TAF: